createdAt,value
2022-07-26T00:00:37.693Z,4.30
2022-07-26T00:03:07.979Z,3.50
2022-07-26T00:05:39.046Z,3.57
2022-07-26T00:08:13.367Z,3.70
2022-07-26T00:10:51.658Z,3.17
2022-07-26T00:13:24.245Z,3.60
2022-07-26T00:15:58.452Z,2.53
2022-07-26T00:18:29.048Z,2.73
2022-07-26T00:20:59.228Z,3.03
2022-07-26T00:23:31.061Z,2.43
2022-07-26T00:26:03.777Z,2.83
2022-07-26T00:28:34.183Z,3.40
2022-07-26T00:31:04.552Z,3.27
2022-07-26T00:33:34.712Z,2.50
2022-07-26T00:36:04.851Z,2.77
2022-07-26T00:38:35.085Z,2.60
2022-07-26T00:41:09.435Z,2.73
2022-07-26T00:43:39.906Z,2.50
2022-07-26T00:46:11.401Z,2.30
2022-07-26T00:48:41.547Z,3.13
2022-07-26T00:51:12.115Z,2.40
2022-07-26T00:53:42.126Z,2.70
2022-07-26T00:56:17.391Z,2.57
2022-07-26T00:58:47.859Z,3.20
2022-07-26T01:01:18.074Z,3.10
2022-07-26T01:03:48.658Z,2.60
2022-07-26T01:06:18.942Z,2.77
2022-07-26T01:08:51.387Z,2.73
2022-07-26T01:11:24.628Z,2.57
2022-07-26T01:13:55.273Z,2.53
2022-07-26T01:16:25.966Z,2.30
2022-07-26T01:18:56.151Z,3.00
2022-07-26T01:21:32.418Z,3.20
2022-07-26T01:24:02.724Z,3.00
2022-07-26T01:26:32.765Z,3.00
2022-07-26T01:29:02.992Z,2.67
2022-07-26T01:31:33.317Z,2.60
2022-07-26T01:34:03.403Z,2.07
2022-07-26T01:36:36.331Z,2.53
2022-07-26T01:39:10.183Z,2.70
2022-07-26T01:41:40.331Z,2.67
2022-07-26T01:44:11.056Z,2.87
2022-07-26T01:46:41.539Z,2.93
2022-07-26T01:49:11.806Z,3.27
2022-07-26T01:51:44.581Z,2.97
2022-07-26T01:54:16.090Z,2.83
2022-07-26T01:56:52.828Z,2.90
2022-07-26T01:59:23.181Z,3.00
2022-07-26T02:01:53.279Z,3.20
2022-07-26T02:04:35.858Z,2.83
2022-07-26T02:07:10.238Z,3.20
2022-07-26T02:09:43.371Z,3.70
2022-07-26T02:12:13.502Z,3.03
2022-07-26T02:14:44.075Z,2.57
2022-07-26T02:17:14.301Z,2.37
2022-07-26T02:19:44.641Z,3.30
2022-07-26T02:22:17.685Z,2.87
2022-07-26T02:24:47.779Z,3.17
2022-07-26T02:27:18.186Z,3.23
2022-07-26T02:29:48.463Z,3.07
2022-07-26T02:32:18.491Z,2.87
2022-07-26T02:34:48.623Z,3.33
2022-07-26T02:37:21.571Z,3.70
2022-07-26T02:39:51.671Z,3.17
2022-07-26T02:42:21.809Z,3.20
2022-07-26T02:44:51.945Z,3.33
2022-07-26T02:47:21.970Z,3.73
2022-07-26T02:49:52.107Z,3.50
2022-07-26T02:52:24.811Z,3.17
2022-07-26T02:54:54.852Z,3.10
2022-07-26T02:57:24.860Z,3.50
2022-07-26T02:59:54.910Z,3.00
2022-07-26T03:02:25.199Z,3.40
2022-07-26T03:04:55.262Z,3.33
2022-07-26T03:07:27.906Z,3.07
2022-07-26T03:09:58.302Z,3.87
2022-07-26T03:12:29.016Z,3.60
2022-07-26T03:14:59.009Z,3.43
2022-07-26T03:17:29.690Z,3.23
2022-07-26T03:20:03.062Z,3.50
2022-07-26T03:22:35.872Z,3.70
2022-07-26T03:25:06.697Z,3.80
2022-07-26T03:27:37.783Z,3.70
2022-07-26T03:30:09.771Z,3.60
2022-07-26T03:32:39.897Z,3.30
2022-07-26T03:35:11.721Z,3.23
2022-07-26T03:37:46.245Z,4.07
2022-07-26T03:40:17.974Z,3.60
2022-07-26T03:42:48.683Z,3.20
2022-07-26T03:45:19.350Z,3.10
2022-07-26T03:47:49.494Z,4.23
2022-07-26T03:50:19.557Z,3.70
2022-07-26T03:52:52.420Z,2.97
2022-07-26T03:55:35.170Z,3.43
2022-07-26T03:58:05.372Z,3.20
2022-07-26T04:00:35.602Z,3.30
2022-07-26T04:03:05.610Z,3.30
2022-07-26T04:05:36.083Z,3.40
2022-07-26T04:08:09.096Z,3.70
2022-07-26T04:10:39.104Z,3.70
2022-07-26T04:13:09.145Z,4.17
2022-07-26T04:15:39.234Z,4.20
2022-07-26T04:18:09.414Z,3.90
2022-07-26T04:20:39.629Z,3.37
2022-07-26T04:23:12.498Z,4.10
2022-07-26T04:25:43.616Z,4.00
2022-07-26T04:28:15.007Z,4.03
2022-07-26T04:30:45.549Z,3.93
2022-07-26T04:33:15.623Z,3.40
2022-07-26T04:35:45.699Z,3.83
2022-07-26T04:38:18.658Z,3.50
2022-07-26T04:40:48.994Z,3.30
2022-07-26T04:43:19.026Z,4.20
2022-07-26T04:45:50.111Z,3.80
2022-07-26T04:48:21.041Z,3.60
2022-07-26T04:50:51.297Z,3.50
2022-07-26T04:53:23.947Z,3.73
2022-07-26T04:55:53.939Z,3.70
2022-07-26T04:58:23.971Z,3.53
2022-07-26T05:01:09.558Z,3.63
2022-07-26T05:03:40.747Z,3.20
2022-07-26T05:06:11.316Z,4.30
2022-07-26T05:08:45.731Z,4.43
2022-07-26T05:11:15.864Z,3.60
2022-07-26T05:13:45.866Z,4.17
2022-07-26T05:16:15.856Z,3.33
2022-07-26T05:18:49.230Z,2.60
2022-07-26T05:21:21.218Z,2.63
2022-07-26T05:23:54.189Z,4.90
2022-07-26T05:26:24.392Z,2.40
2022-07-26T05:28:54.685Z,3.07
2022-07-26T05:31:24.910Z,2.67
2022-07-26T05:33:55.247Z,3.00
2022-07-26T05:36:25.597Z,3.00
2022-07-26T05:38:58.507Z,3.00
2022-07-26T05:41:28.695Z,2.80
2022-07-26T05:43:59.054Z,4.33
2022-07-26T05:46:29.437Z,3.27
2022-07-26T05:48:59.764Z,3.20
2022-07-26T05:51:30.342Z,3.33
2022-07-26T05:54:03.156Z,3.70
2022-07-26T05:56:33.510Z,4.83
2022-07-26T05:59:03.837Z,3.70
2022-07-26T06:01:35.050Z,3.57
2022-07-26T06:04:07.183Z,3.77
2022-07-26T06:06:37.577Z,3.50
2022-07-26T06:09:10.207Z,4.10
2022-07-26T06:11:40.425Z,3.90
2022-07-26T06:14:10.639Z,4.13
2022-07-26T06:16:40.967Z,3.43
2022-07-26T06:19:11.088Z,3.50
2022-07-26T06:21:42.206Z,3.90
2022-07-26T06:24:15.196Z,3.73
2022-07-26T06:26:46.632Z,3.33
2022-07-26T06:29:16.717Z,3.67
2022-07-26T06:31:46.794Z,3.13
2022-07-26T06:34:16.949Z,3.40
2022-07-26T06:36:47.006Z,3.20
2022-07-26T06:39:19.626Z,3.57
2022-07-26T06:41:49.721Z,2.70
2022-07-26T06:44:25.508Z,3.47
2022-07-26T06:46:55.576Z,3.27
2022-07-26T06:49:25.880Z,3.50
2022-07-26T06:51:57.939Z,3.07
2022-07-26T06:54:30.691Z,2.90
2022-07-26T07:04:12.625Z,3.07
2022-07-26T07:06:42.739Z,3.10
2022-07-26T07:09:15.093Z,2.60
2022-07-26T07:11:51.797Z,2.67
2022-07-26T07:14:26.462Z,3.03
2022-07-26T07:16:56.650Z,2.50
2022-07-26T07:19:27.413Z,2.70
2022-07-26T07:21:57.713Z,2.77
2022-07-26T07:24:27.772Z,2.83
2022-07-26T07:27:01.424Z,2.80
2022-07-26T07:29:31.418Z,3.20
2022-07-26T07:32:03.566Z,2.90
2022-07-26T07:34:33.778Z,2.67
2022-07-26T07:37:04.653Z,3.80
2022-07-26T07:39:38.720Z,2.47
2022-07-26T07:42:11.803Z,2.03
2022-07-26T07:44:41.803Z,2.30
2022-07-26T07:47:12.179Z,2.03
2022-07-26T07:49:42.341Z,2.07
2022-07-26T07:52:12.338Z,2.00
2022-07-26T07:54:42.393Z,3.20
2022-07-26T07:57:15.012Z,2.33
2022-07-26T07:59:45.382Z,2.90
2022-07-26T08:02:15.891Z,2.20
2022-07-26T08:04:46.007Z,2.20
2022-07-26T08:07:16.358Z,2.67
2022-07-26T08:09:46.854Z,2.63
2022-07-26T08:12:19.929Z,3.40
2022-07-26T08:14:50.866Z,2.37
2022-07-26T08:17:20.955Z,2.27
2022-07-26T08:19:55.734Z,2.17
2022-07-26T08:22:29.872Z,2.30
2022-07-26T08:25:00.495Z,2.13
2022-07-26T08:27:40.449Z,2.40
2022-07-26T08:30:13.049Z,1.87
2022-07-26T08:32:43.142Z,2.30
2022-07-26T08:35:18.072Z,2.57
2022-07-26T08:37:50.169Z,1.80
2022-07-26T08:40:20.362Z,2.10
2022-07-26T08:42:56.833Z,2.90
2022-07-26T08:45:30.484Z,2.23
2022-07-26T08:48:18.928Z,2.50
2022-07-26T08:50:50.576Z,1.87
2022-07-26T08:53:20.568Z,2.77
2022-07-26T08:56:06.445Z,1.83
2022-07-26T08:58:40.862Z,2.27
2022-07-26T09:01:15.142Z,2.40
2022-07-26T09:03:47.826Z,2.37
2022-07-26T09:06:20.300Z,2.30
2022-07-26T09:08:55.397Z,2.97
2022-07-26T09:11:35.549Z,2.00
2022-07-26T09:14:09.293Z,1.87
2022-07-26T09:16:40.279Z,1.90
2022-07-26T09:19:22.387Z,2.10
2022-07-26T09:21:55.572Z,1.87
2022-07-26T09:24:37.902Z,2.33
2022-07-26T09:27:11.566Z,1.80
2022-07-26T09:29:57.427Z,1.90
2022-07-26T09:32:29.629Z,2.80
2022-07-26T09:35:45.327Z,2.50
2022-07-26T09:38:03.885Z,2.33
2022-07-26T09:40:37.787Z,1.70
2022-07-26T09:43:10.114Z,2.90
2022-07-26T09:45:48.301Z,2.37
2022-07-26T09:48:52.287Z,1.90
2022-07-26T09:51:39.276Z,2.10
2022-07-26T09:54:10.328Z,2.30
2022-07-26T09:56:50.661Z,1.97
2022-07-26T09:59:23.912Z,2.40
2022-07-26T10:01:58.861Z,1.97
2022-07-26T10:04:30.276Z,2.10
2022-07-26T10:07:02.063Z,2.77
2022-07-26T10:09:41.351Z,2.53
2022-07-26T10:12:16.504Z,2.03
2022-07-26T10:14:51.346Z,1.90
2022-07-26T10:17:51.263Z,1.90
2022-07-26T10:20:50.934Z,2.37
2022-07-26T10:23:44.687Z,2.17
2022-07-26T10:26:46.435Z,1.80
2022-07-26T10:29:30.777Z,2.53
2022-07-26T10:32:20.334Z,1.97
2022-07-26T10:34:53.186Z,1.80
2022-07-26T10:37:30.517Z,2.10
2022-07-26T10:40:25.534Z,2.70
2022-07-26T10:42:55.619Z,2.50
2022-07-26T10:45:27.221Z,1.77
2022-07-26T10:48:18.583Z,2.13
2022-07-26T10:50:55.086Z,1.77
2022-07-26T10:53:28.437Z,2.00
2022-07-26T10:56:01.551Z,2.33
2022-07-26T10:58:44.838Z,2.03
2022-07-26T11:01:15.745Z,2.73
2022-07-26T11:03:46.858Z,2.30
2022-07-26T11:06:23.093Z,2.47
2022-07-26T11:08:53.230Z,2.37
2022-07-26T11:11:32.948Z,2.47
2022-07-26T11:14:12.736Z,2.60
2022-07-26T11:16:45.905Z,2.57
2022-07-26T11:19:18.322Z,1.97
2022-07-26T11:21:58.700Z,1.70
2022-07-26T11:24:29.250Z,2.00
2022-07-26T11:27:05.568Z,2.10
2022-07-26T11:29:40.274Z,2.00
2022-07-26T11:32:21.771Z,1.87
2022-07-26T11:35:01.748Z,1.90
2022-07-26T11:37:34.726Z,2.37
2022-07-26T11:40:04.825Z,2.27
2022-07-26T11:42:34.889Z,2.13
2022-07-26T11:45:04.995Z,2.07
2022-07-26T11:47:35.144Z,2.10
2022-07-26T11:50:22.714Z,1.73
2022-07-26T11:52:56.527Z,1.50
2022-07-26T11:55:31.266Z,1.80
2022-07-26T11:58:08.919Z,1.70
2022-07-26T12:00:39.716Z,1.50
2022-07-26T12:03:09.862Z,2.10
2022-07-26T12:05:41.859Z,1.63
2022-07-26T12:08:15.495Z,2.17
2022-07-26T12:10:45.616Z,1.60
2022-07-26T12:13:19.017Z,1.63
2022-07-26T12:15:51.172Z,1.70
2022-07-26T12:18:34.077Z,2.03
2022-07-26T12:21:09.279Z,1.63
2022-07-26T12:23:53.173Z,1.67
2022-07-26T12:26:25.389Z,1.50
2022-07-26T12:28:57.058Z,1.60
2022-07-26T12:31:29.572Z,1.90
2022-07-26T12:34:00.168Z,2.00
2022-07-26T12:36:30.872Z,1.60
2022-07-26T12:39:04.708Z,2.07
2022-07-26T12:41:37.835Z,1.60
2022-07-26T12:44:12.002Z,2.00
2022-07-26T12:46:45.099Z,1.70
2022-07-26T12:49:15.821Z,1.77
2022-07-26T12:51:45.926Z,2.37
2022-07-26T12:54:18.549Z,1.50
2022-07-26T12:56:48.718Z,1.60
2022-07-26T12:59:18.832Z,1.60
2022-07-26T13:01:49.040Z,1.80
2022-07-26T13:04:19.164Z,1.80
2022-07-26T13:06:49.179Z,1.53
2022-07-26T13:09:21.807Z,1.60
2022-07-26T13:11:51.996Z,2.07
2022-07-26T13:14:22.163Z,1.87
2022-07-26T13:16:52.314Z,1.50
2022-07-26T13:19:22.646Z,1.60
2022-07-26T13:21:53.212Z,1.70
2022-07-26T13:24:26.232Z,1.63
2022-07-26T13:26:57.742Z,1.27
2022-07-26T13:29:30.849Z,1.30
2022-07-26T13:32:01.996Z,1.60
2022-07-26T13:34:35.090Z,1.43
2022-07-26T13:37:08.230Z,2.03
2022-07-26T13:39:41.311Z,1.70
2022-07-26T13:42:11.464Z,1.67
2022-07-26T13:44:41.505Z,1.40
2022-07-26T13:47:11.562Z,1.57
2022-07-26T13:49:41.686Z,1.60
2022-07-26T13:52:15.684Z,1.70
2022-07-26T13:54:49.477Z,1.83
2022-07-26T13:57:19.585Z,1.47
2022-07-26T13:59:49.597Z,2.00
2022-07-26T14:02:19.797Z,1.87
2022-07-26T14:04:50.489Z,1.90
2022-07-26T14:07:20.467Z,1.93
2022-07-26T14:09:53.049Z,1.97
2022-07-26T14:12:23.352Z,1.60
2022-07-26T14:14:53.333Z,1.70
2022-07-26T14:17:23.328Z,1.60
2022-07-26T14:19:53.610Z,1.43
2022-07-26T14:22:23.732Z,1.67
2022-07-26T14:24:56.396Z,1.93
2022-07-26T14:27:26.584Z,1.60
2022-07-26T14:29:56.578Z,1.43
2022-07-26T14:32:26.603Z,1.40
2022-07-26T14:34:56.782Z,1.87
2022-07-26T14:37:41.465Z,1.80
2022-07-26T14:40:20.085Z,1.47
2022-07-26T14:42:50.233Z,1.53
2022-07-26T14:45:20.395Z,1.60
2022-07-26T14:47:50.563Z,1.60
2022-07-26T14:50:22.942Z,1.60
2022-07-26T14:52:53.442Z,1.70
2022-07-26T14:55:26.314Z,1.53
2022-07-26T14:57:56.411Z,1.67
2022-07-26T15:00:26.555Z,1.30
2022-07-26T15:02:56.701Z,1.93
2022-07-26T15:05:27.881Z,2.10
2022-07-26T15:08:02.756Z,2.03
2022-07-26T15:10:38.254Z,1.70
2022-07-26T15:13:10.312Z,2.40
2022-07-26T15:15:40.275Z,1.70
2022-07-26T15:18:10.770Z,1.37
2022-07-26T15:20:42.693Z,1.90
2022-07-26T15:23:14.661Z,1.80
2022-07-26T15:25:48.698Z,1.97
2022-07-26T15:28:19.274Z,1.60
2022-07-26T15:30:49.375Z,2.00
2022-07-26T15:33:20.699Z,1.90
2022-07-26T15:35:53.235Z,1.33
2022-07-26T15:38:23.333Z,2.00
2022-07-26T15:40:56.050Z,1.97
2022-07-26T15:43:43.998Z,2.13
2022-07-26T15:46:19.699Z,1.47
2022-07-26T15:48:51.890Z,1.63
2022-07-26T15:51:24.835Z,1.87
2022-07-26T15:53:55.105Z,1.90
2022-07-26T15:56:27.912Z,1.80
2022-07-26T15:58:57.868Z,1.70
2022-07-26T16:01:28.050Z,1.57
2022-07-26T16:03:58.549Z,1.60
2022-07-26T16:06:28.570Z,1.43
2022-07-26T16:09:15.892Z,1.90
2022-07-26T16:11:49.646Z,1.70
2022-07-26T16:14:20.503Z,2.00
2022-07-26T16:16:51.184Z,1.70
2022-07-26T16:19:21.491Z,1.57
2022-07-26T16:21:51.587Z,1.57
2022-07-26T16:24:21.839Z,1.80
2022-07-26T16:26:54.732Z,1.47
2022-07-26T16:29:25.163Z,2.00
2022-07-26T16:31:56.270Z,1.80
2022-07-26T16:34:27.451Z,1.80
2022-07-26T16:36:57.535Z,1.73
2022-07-26T16:39:27.598Z,1.73
2022-07-26T16:42:04.706Z,1.57
2022-07-26T16:44:37.038Z,1.37
2022-07-26T16:47:07.379Z,1.60
2022-07-26T16:49:37.712Z,1.50
2022-07-26T16:52:09.477Z,1.60
2022-07-26T16:54:39.470Z,1.87
2022-07-26T16:57:12.327Z,2.10
2022-07-26T16:59:42.428Z,1.90
2022-07-26T17:02:12.631Z,1.70
2022-07-26T17:04:42.654Z,2.00
2022-07-26T17:07:25.191Z,1.70
2022-07-26T17:09:56.551Z,1.80
2022-07-26T17:12:29.643Z,2.13
2022-07-26T17:15:01.381Z,2.00
2022-07-26T17:17:31.521Z,2.33
2022-07-26T17:20:01.676Z,2.10
2022-07-26T17:22:31.876Z,1.73
2022-07-26T17:25:01.991Z,2.07
2022-07-26T17:27:35.545Z,2.07
2022-07-26T17:30:07.073Z,2.03
2022-07-26T17:32:38.121Z,2.00
2022-07-26T17:35:10.892Z,2.00
2022-07-26T17:37:40.942Z,2.27
2022-07-26T17:40:13.634Z,2.10
2022-07-26T17:42:48.970Z,2.27
2022-07-26T17:45:19.198Z,2.10
2022-07-26T17:47:49.206Z,2.20
2022-07-26T17:50:35.861Z,1.63
2022-07-26T17:53:07.447Z,1.87
2022-07-26T17:55:37.646Z,2.17
2022-07-26T17:58:10.243Z,1.60
2022-07-26T18:00:40.746Z,1.63
2022-07-26T18:03:11.194Z,1.50
2022-07-26T18:05:41.663Z,1.60
2022-07-26T18:08:11.704Z,1.87
2022-07-26T18:10:43.693Z,2.17
2022-07-26T18:13:19.001Z,2.00
2022-07-26T18:15:49.986Z,2.13
2022-07-26T18:18:20.233Z,1.83
2022-07-26T18:20:50.561Z,1.90
2022-07-26T18:23:20.648Z,1.80
2022-07-26T18:25:50.991Z,1.80
2022-07-26T18:28:23.702Z,1.87
2022-07-26T18:30:54.068Z,1.93
2022-07-26T18:33:24.106Z,2.23
2022-07-26T18:35:57.037Z,1.70
2022-07-26T18:38:27.165Z,2.37
2022-07-26T18:40:57.576Z,1.93
2022-07-26T18:43:30.188Z,1.83
2022-07-26T18:46:05.571Z,2.63
2022-07-26T18:48:36.680Z,1.97
2022-07-26T18:51:11.670Z,1.87
2022-07-26T18:53:41.841Z,2.10
2022-07-26T18:56:11.885Z,2.03
2022-07-26T18:58:44.453Z,1.90
2022-07-26T19:01:14.656Z,1.90
2022-07-26T19:03:45.188Z,1.90
2022-07-26T19:06:15.314Z,2.53
2022-07-26T19:08:45.513Z,1.90
2022-07-26T19:11:15.496Z,2.60
2022-07-26T19:13:48.113Z,2.00
2022-07-26T19:16:18.994Z,1.80
2022-07-26T19:18:52.732Z,2.17
2022-07-26T19:21:25.722Z,2.57
2022-07-26T19:23:55.904Z,2.60
2022-07-26T19:26:27.593Z,2.10
2022-07-26T19:29:00.544Z,2.20
2022-07-26T19:31:30.702Z,2.50
2022-07-26T19:34:00.798Z,2.67
2022-07-26T19:36:30.810Z,2.07
2022-07-26T19:39:01.315Z,2.03
2022-07-26T19:41:31.485Z,2.67
2022-07-26T19:44:04.486Z,2.10
2022-07-26T19:46:35.733Z,2.50
2022-07-26T19:49:06.673Z,2.23
2022-07-26T19:51:36.715Z,2.00
2022-07-26T19:54:07.051Z,2.60
2022-07-26T19:56:41.829Z,3.13
2022-07-26T19:59:19.497Z,3.00
2022-07-26T20:01:56.619Z,2.40
2022-07-26T20:04:28.710Z,2.30
2022-07-26T20:06:58.773Z,2.40
2022-07-26T20:09:29.885Z,2.67
2022-07-26T20:12:01.032Z,3.00
2022-07-26T20:14:33.703Z,2.30
2022-07-26T20:17:03.778Z,2.70
2022-07-26T20:19:43.813Z,2.60
2022-07-26T20:22:14.326Z,2.50
2022-07-26T20:24:44.263Z,2.60
2022-07-26T20:27:14.246Z,2.60
2022-07-26T20:29:46.973Z,2.80
2022-07-26T20:32:17.265Z,2.90
2022-07-26T20:34:47.739Z,3.00
2022-07-26T20:37:17.742Z,2.47
2022-07-26T20:39:47.933Z,2.40
2022-07-26T20:42:21.629Z,3.23
2022-07-26T20:44:55.424Z,3.13
2022-07-26T20:47:25.509Z,2.43
2022-07-26T20:49:59.652Z,3.27
2022-07-26T20:52:32.782Z,2.70
2022-07-26T20:55:03.085Z,2.77
2022-07-26T20:57:33.133Z,3.70
2022-07-26T21:00:09.339Z,2.97
2022-07-26T21:02:39.781Z,3.17
2022-07-26T21:05:13.548Z,3.10
2022-07-26T21:07:59.575Z,3.07
2022-07-26T21:10:30.710Z,4.60
2022-07-26T21:13:01.115Z,3.30
2022-07-26T21:15:34.378Z,3.40
2022-07-26T21:18:04.546Z,3.80
2022-07-26T21:20:35.342Z,3.30
2022-07-26T21:25:30.886Z,3.90
2022-07-26T21:28:01.152Z,4.07
2022-07-26T21:30:33.826Z,3.57
2022-07-26T21:33:03.921Z,4.30
2022-07-26T21:35:35.457Z,4.90
2022-07-26T21:38:05.588Z,3.87
2022-07-26T21:40:35.797Z,3.10
2022-07-26T21:43:05.815Z,3.93
2022-07-26T21:45:38.461Z,4.00
2022-07-26T21:48:09.697Z,3.13
2022-07-26T21:50:39.695Z,3.33
2022-07-26T21:53:09.815Z,3.17
2022-07-26T21:55:39.796Z,3.60
2022-07-26T21:58:10.181Z,4.00
2022-07-26T22:00:43.340Z,3.57
2022-07-26T22:03:13.404Z,3.37
2022-07-26T22:05:45.346Z,4.03
2022-07-26T22:08:18.107Z,3.70
2022-07-26T22:10:48.383Z,3.80
2022-07-26T22:13:19.194Z,4.20
2022-07-26T22:15:52.245Z,3.63
2022-07-26T22:18:22.434Z,3.30
2022-07-26T22:20:52.929Z,3.30
2022-07-26T22:23:30.126Z,3.40
2022-07-26T22:26:01.942Z,3.60
2022-07-26T22:28:32.706Z,3.63
2022-07-26T22:31:05.303Z,3.73
2022-07-26T22:33:35.339Z,4.13
2022-07-26T22:36:05.286Z,3.60
2022-07-26T22:38:35.290Z,3.50
2022-07-26T22:41:05.281Z,3.90
2022-07-26T22:43:35.291Z,3.60
2022-07-26T22:46:07.901Z,3.93
2022-07-26T22:48:38.927Z,3.63
2022-07-26T22:51:09.886Z,3.90
2022-07-26T22:53:39.907Z,4.73
2022-07-26T22:56:09.885Z,3.80
2022-07-26T22:58:41.695Z,3.27
2022-07-26T23:01:16.653Z,4.17
2022-07-26T23:03:49.777Z,3.90
2022-07-26T23:06:31.601Z,3.93
2022-07-26T23:09:02.351Z,3.20
2022-07-26T23:11:32.915Z,3.80
2022-07-26T23:14:03.150Z,3.63
2022-07-26T23:16:35.805Z,3.33
2022-07-26T23:19:06.165Z,3.87
2022-07-26T23:21:36.363Z,3.47
2022-07-26T23:24:06.504Z,3.73
2022-07-26T23:26:36.489Z,3.87
2022-07-26T23:29:08.608Z,4.00
2022-07-26T23:31:42.224Z,3.33
2022-07-26T23:34:12.270Z,4.37
2022-07-26T23:36:42.209Z,3.53
2022-07-26T23:39:12.656Z,4.13
2022-07-26T23:41:43.086Z,3.90
2022-07-26T23:44:13.105Z,4.50
2022-07-26T23:47:03.440Z,4.03
2022-07-26T23:49:33.641Z,3.80
2022-07-26T23:52:03.718Z,4.87
2022-07-26T23:54:33.688Z,4.17
2022-07-26T23:57:18.571Z,4.27
2022-07-26T23:59:48.533Z,4.73
